createdAt,value
2019-04-11T00:00:57.676Z,9.80
2019-04-11T00:03:27.385Z,9.43
2019-04-11T00:05:57.136Z,10.17
2019-04-11T00:08:26.701Z,10.37
2019-04-11T00:10:56.234Z,10.30
2019-04-11T00:13:45.207Z,10.40
2019-04-11T00:16:15.220Z,10.00
2019-04-11T00:18:49.145Z,9.90
2019-04-11T00:21:18.788Z,10.30
2019-04-11T00:23:48.531Z,10.60
2019-04-11T00:26:18.034Z,9.87
2019-04-11T00:29:07.007Z,10.40
2019-04-11T00:31:36.876Z,10.00
2019-04-11T00:34:06.831Z,10.80
2019-04-11T00:36:36.808Z,11.13
2019-04-11T00:39:11.034Z,11.17
2019-04-11T00:42:00.022Z,10.50
2019-04-11T00:44:30.546Z,10.97
2019-04-11T00:47:00.540Z,11.10
2019-04-11T00:49:30.380Z,10.87
2019-04-11T00:52:02.671Z,11.70
2019-04-11T00:54:33.148Z,9.63
2019-04-11T00:57:02.761Z,9.70
2019-04-11T00:59:32.293Z,10.63
2019-04-11T01:02:02.087Z,10.67
2019-04-11T01:04:32.766Z,12.23
2019-04-11T01:07:02.776Z,11.10
2019-04-11T01:09:32.661Z,9.80
2019-04-11T01:12:02.679Z,9.47
2019-04-11T01:14:32.306Z,10.40
2019-04-11T01:17:21.331Z,9.77
2019-04-11T01:19:51.152Z,10.67
2019-04-11T01:22:20.748Z,10.43
2019-04-11T01:24:50.374Z,10.57
2019-04-11T01:27:19.916Z,11.87
2019-04-11T01:29:49.816Z,14.23
2019-04-11T01:32:20.208Z,11.60
2019-04-11T01:34:50.856Z,11.77
2019-04-11T01:37:21.741Z,12.70
2019-04-11T01:39:53.696Z,12.33
2019-04-11T01:42:23.317Z,11.50
2019-04-11T01:44:53.137Z,11.43
2019-04-11T01:47:24.450Z,12.00
2019-04-11T01:49:54.564Z,11.57
2019-04-11T01:52:24.529Z,11.67
2019-04-11T01:54:54.208Z,11.77
2019-04-11T01:57:23.701Z,10.83
2019-04-11T01:59:55.569Z,11.13
2019-04-11T02:02:26.786Z,11.20
2019-04-11T02:04:58.708Z,11.53
2019-04-11T02:07:28.905Z,11.20
2019-04-11T02:10:10.683Z,12.57
2019-04-11T02:12:40.138Z,12.27
2019-04-11T02:15:10.594Z,12.03
2019-04-11T02:17:41.100Z,13.10
2019-04-11T02:20:12.543Z,12.67
2019-04-11T02:22:43.710Z,13.20
2019-04-11T02:25:15.075Z,12.43
2019-04-11T02:27:44.583Z,12.73
2019-04-11T02:30:16.764Z,13.77
2019-04-11T02:32:47.895Z,13.00
2019-04-11T02:35:17.658Z,13.03
2019-04-11T02:37:50.459Z,13.43
2019-04-11T02:40:22.929Z,13.67
2019-04-11T02:42:52.632Z,12.70
2019-04-11T02:45:36.265Z,13.80
2019-04-11T02:47:56.422Z,12.77
2019-04-11T02:50:29.943Z,12.97
2019-04-11T02:53:00.941Z,13.50
2019-04-11T02:55:31.682Z,13.97
2019-04-11T02:58:03.333Z,12.40
2019-04-11T03:00:35.465Z,14.87
2019-04-11T03:03:05.680Z,14.33
2019-04-11T03:05:37.565Z,13.27
2019-04-11T03:08:16.506Z,15.40
2019-04-11T03:10:57.710Z,15.10
2019-04-11T03:13:29.291Z,15.07
2019-04-11T03:16:33.287Z,15.57
2019-04-11T03:19:05.575Z,15.40
2019-04-11T03:21:23.550Z,15.60
2019-04-11T03:23:52.299Z,15.60
2019-04-11T03:26:22.564Z,16.77
2019-04-11T03:28:56.257Z,15.50
2019-04-11T03:32:05.833Z,15.50
2019-04-11T03:34:38.454Z,15.90
2019-04-11T03:39:18.217Z,16.70
2019-04-11T03:41:45.449Z,15.93
2019-04-11T03:44:11.992Z,16.30
2019-04-11T03:46:51.091Z,16.97
2019-04-11T03:49:19.268Z,16.87
2019-04-11T03:51:37.016Z,15.70
2019-04-11T03:54:26.986Z,18.13
2019-04-11T03:56:59.177Z,16.83
2019-04-11T03:59:31.223Z,16.80
2019-04-11T04:02:03.309Z,16.93
2019-04-11T04:04:35.100Z,17.97
2019-04-11T04:07:06.786Z,17.30
2019-04-11T04:09:37.371Z,17.27
2019-04-11T04:12:09.483Z,17.50
2019-04-11T04:14:42.868Z,16.70
2019-04-11T04:17:35.889Z,18.60
2019-04-11T04:20:08.781Z,17.97
2019-04-11T04:22:42.086Z,17.77
2019-04-11T04:25:12.527Z,17.60
2019-04-11T04:27:42.918Z,17.87
2019-04-11T04:30:15.069Z,17.37
2019-04-11T04:32:45.191Z,17.13
2019-04-11T04:35:19.010Z,18.27
2019-04-11T04:37:47.899Z,18.43
2019-04-11T04:40:50.996Z,17.50
2019-04-11T04:43:11.932Z,17.43
2019-04-11T04:45:57.914Z,17.77
2019-04-11T04:48:16.652Z,16.60
2019-04-11T04:50:44.870Z,17.57
2019-04-11T04:53:16.159Z,16.50
2019-04-11T04:55:47.686Z,17.60
2019-04-11T04:58:18.025Z,16.43
2019-04-11T05:00:51.128Z,18.23
2019-04-11T05:03:20.148Z,16.67
2019-04-11T05:05:50.996Z,16.57
2019-04-11T05:08:22.732Z,17.10
2019-04-11T05:10:53.549Z,16.13
2019-04-11T05:13:46.317Z,17.20
2019-04-11T05:16:17.620Z,16.10
2019-04-11T05:18:45.001Z,16.60
2019-04-11T05:21:14.497Z,16.00
2019-04-11T05:23:44.031Z,15.93
2019-04-11T05:26:33.348Z,15.53
2019-04-11T05:29:02.896Z,15.17
2019-04-11T05:31:32.377Z,15.27
2019-04-11T05:34:02.036Z,15.97
2019-04-11T05:36:32.346Z,16.17
2019-04-11T05:39:02.365Z,13.53
2019-04-11T05:41:31.999Z,15.00
2019-04-11T05:44:03.481Z,14.77
2019-04-11T05:46:45.450Z,13.93
2019-04-11T05:49:05.649Z,14.50
2019-04-11T05:51:40.921Z,13.70
2019-04-11T05:54:08.835Z,13.87
2019-04-11T05:56:38.486Z,14.27
2019-04-11T05:59:09.675Z,13.63
2019-04-11T06:01:46.844Z,13.53
2019-04-11T06:04:20.965Z,13.47
2019-04-11T06:06:50.717Z,13.30
2019-04-11T06:09:22.771Z,13.93
2019-04-11T06:11:57.228Z,13.57
2019-04-11T06:14:27.246Z,13.77
2019-04-11T06:16:59.169Z,12.50
2019-04-11T06:19:30.668Z,12.67
2019-04-11T06:22:01.836Z,13.17
2019-04-11T06:24:52.346Z,12.67
2019-04-11T06:27:24.199Z,12.50
2019-04-11T06:29:55.437Z,11.67
2019-04-11T06:32:27.768Z,11.80
2019-04-11T06:34:59.725Z,11.33
2019-04-11T06:40:20.994Z,9.40
2019-04-11T06:42:52.094Z,10.73
2019-04-11T06:45:23.786Z,9.90
2019-04-11T06:47:55.039Z,9.77
2019-04-11T06:50:45.438Z,9.83
2019-04-11T06:53:36.476Z,9.57
2019-04-11T06:56:08.332Z,9.67
2019-04-11T06:58:39.550Z,9.73
2019-04-11T07:01:11.888Z,9.37
2019-04-11T07:03:43.346Z,9.03
2019-04-11T07:06:15.397Z,9.30
2019-04-11T07:08:46.945Z,9.67
2019-04-11T07:11:18.122Z,8.20
2019-04-11T07:13:49.777Z,8.97
2019-04-11T07:16:19.975Z,9.47
2019-04-11T07:18:52.738Z,9.27
2019-04-11T07:21:23.910Z,8.53
2019-04-11T07:23:55.552Z,8.37
2019-04-11T07:26:27.378Z,8.40
2019-04-11T07:28:58.659Z,8.93
2019-04-11T07:31:30.102Z,8.43
2019-04-11T07:34:02.478Z,7.93
2019-04-11T07:36:33.945Z,8.17
2019-04-11T07:39:09.848Z,7.70
2019-04-11T07:41:43.022Z,7.73
2019-04-11T07:44:15.443Z,7.87
2019-04-11T07:46:47.300Z,7.73
2019-04-11T07:49:18.496Z,8.40
2019-04-11T07:51:50.678Z,7.93
2019-04-11T07:54:25.898Z,7.87
2019-04-11T07:56:57.058Z,7.90
2019-04-11T07:59:29.451Z,8.07
2019-04-11T08:02:01.566Z,7.67
2019-04-11T08:04:32.632Z,7.67
2019-04-11T08:07:04.432Z,7.47
2019-04-11T08:09:35.852Z,8.17
2019-04-11T08:12:15.026Z,7.77
2019-04-11T08:14:46.291Z,7.67
2019-04-11T08:17:29.000Z,7.75
2019-04-11T08:19:51.146Z,7.70
2019-04-11T08:22:23.136Z,7.95
2019-04-11T08:24:54.361Z,8.98
2019-04-11T08:27:25.476Z,7.95
2019-04-11T08:29:56.619Z,8.35
2019-04-11T08:32:30.574Z,8.48
2019-04-11T08:35:02.005Z,8.93
2019-04-11T08:37:33.768Z,8.83
2019-04-11T08:40:05.890Z,8.93
2019-04-11T08:42:37.801Z,9.00
2019-04-11T08:45:29.802Z,9.33
2019-04-11T08:48:01.033Z,9.10
2019-04-11T08:50:32.399Z,8.70
2019-04-11T08:53:04.571Z,8.35
2019-04-11T08:55:45.575Z,9.03
2019-04-11T08:58:14.691Z,8.63
2019-04-11T09:00:46.986Z,8.80
2019-04-11T09:03:18.080Z,9.13
2019-04-11T09:05:49.350Z,9.85
2019-04-11T09:08:20.601Z,8.30
2019-04-11T09:10:52.588Z,6.57
2019-04-11T09:13:24.964Z,8.60
2019-04-11T09:15:59.410Z,8.97
2019-04-11T09:18:30.622Z,8.83
2019-04-11T09:21:02.352Z,8.70
2019-04-11T09:23:32.010Z,9.40
2019-04-11T09:26:03.621Z,9.50
2019-04-11T09:28:35.620Z,9.43
2019-04-11T09:31:09.249Z,9.17
2019-04-11T09:33:39.821Z,9.77
2019-04-11T09:36:11.384Z,9.70
2019-04-11T09:38:42.488Z,8.75
2019-04-11T09:41:14.399Z,9.30
2019-04-11T09:43:44.777Z,8.83
2019-04-11T09:46:16.486Z,8.98
2019-04-11T09:48:48.380Z,8.93
2019-04-11T09:51:19.608Z,9.03
2019-04-11T09:53:50.851Z,9.30
2019-04-11T09:56:22.831Z,8.58
2019-04-11T09:58:54.014Z,9.03
2019-04-11T10:01:25.112Z,8.83
2019-04-11T10:03:54.700Z,8.55
2019-04-11T10:06:25.854Z,8.83
2019-04-11T10:08:57.621Z,8.28
2019-04-11T10:11:48.529Z,8.45
2019-04-11T10:14:19.305Z,9.00
2019-04-11T10:16:50.700Z,8.88
2019-04-11T10:19:22.092Z,7.78
2019-04-11T10:21:54.365Z,8.08
2019-04-11T10:24:26.384Z,7.30
2019-04-11T10:26:58.482Z,8.13
2019-04-11T10:32:39.317Z,8.05
2019-04-11T10:35:10.845Z,8.28
2019-04-11T10:37:42.249Z,8.35
2019-04-11T10:40:13.885Z,7.70
2019-04-11T10:42:44.420Z,7.83
2019-04-11T10:45:16.266Z,7.85
2019-04-11T10:47:47.205Z,7.90
2019-04-11T10:50:37.776Z,8.23
2019-04-11T10:53:27.007Z,7.97
2019-04-11T10:55:58.171Z,8.20
2019-04-11T10:58:29.273Z,7.85
2019-04-11T11:01:00.559Z,7.30
2019-04-11T11:03:33.997Z,7.87
2019-04-11T11:06:05.481Z,8.00
2019-04-11T11:08:37.623Z,6.97
2019-04-11T11:11:11.685Z,7.97
2019-04-11T11:13:42.406Z,8.43
2019-04-11T11:16:12.290Z,7.90
2019-04-11T11:19:15.578Z,8.25
2019-04-11T11:21:15.513Z,7.72
2019-04-11T11:23:49.128Z,7.58
2019-04-11T11:26:22.612Z,8.15
2019-04-11T11:28:52.419Z,8.10
2019-04-11T11:31:24.409Z,7.77
2019-04-11T11:33:56.367Z,7.80
2019-04-11T11:36:32.088Z,7.20
2019-04-11T11:41:38.548Z,8.05
2019-04-11T11:44:09.866Z,7.37
2019-04-11T11:46:41.087Z,8.13
2019-04-11T11:49:43.826Z,7.60
2019-04-11T11:52:22.809Z,8.03
2019-04-11T11:54:53.565Z,8.08
2019-04-11T11:57:24.803Z,7.77
2019-04-11T11:59:56.577Z,7.57
2019-04-11T12:02:28.558Z,8.47
2019-04-11T12:05:00.275Z,8.27
2019-04-11T12:07:36.997Z,7.45
2019-04-11T12:10:04.470Z,7.23
2019-04-11T12:12:35.939Z,6.83
2019-04-11T12:15:08.213Z,7.00
2019-04-11T12:17:40.373Z,7.27
2019-04-11T12:20:14.949Z,8.13
2019-04-11T12:22:44.820Z,7.40
2019-04-11T12:25:16.593Z,7.20
2019-04-11T12:27:48.051Z,7.40
2019-04-11T12:30:23.436Z,7.20
2019-04-11T12:32:52.903Z,7.10
2019-04-11T12:38:11.178Z,7.05
2019-04-11T12:41:01.583Z,7.08
2019-04-11T12:43:32.694Z,7.15
2019-04-11T12:46:03.795Z,7.30
2019-04-11T12:48:34.895Z,7.00
2019-04-11T12:51:06.103Z,6.92
2019-04-11T12:53:35.558Z,6.45
2019-04-11T12:56:06.813Z,6.33
2019-04-11T12:58:38.225Z,6.77
2019-04-11T13:01:09.323Z,6.70
2019-04-11T13:03:40.582Z,6.23
2019-04-11T13:06:11.895Z,6.90
2019-04-11T13:11:29.567Z,7.07
2019-04-11T13:14:00.646Z,6.73
2019-04-11T13:16:30.130Z,7.10
2019-04-11T13:19:01.255Z,6.77
2019-04-11T13:21:32.503Z,6.90
2019-04-11T13:24:03.602Z,7.33
2019-04-11T13:26:34.745Z,6.70
2019-04-11T13:29:25.135Z,6.90
2019-04-11T13:32:15.671Z,6.20
2019-04-11T13:34:46.780Z,6.40
2019-04-11T13:37:17.891Z,6.13
2019-04-11T13:39:49.031Z,6.20
2019-04-11T13:42:20.148Z,6.47
2019-04-11T13:44:49.630Z,5.08
2019-04-11T13:47:20.946Z,6.30
2019-04-11T13:49:52.001Z,6.10
2019-04-11T13:52:42.429Z,5.87
2019-04-11T13:55:14.671Z,6.00
2019-04-11T14:00:36.824Z,6.07
2019-04-11T14:03:08.131Z,5.97
2019-04-11T14:05:39.242Z,6.50
2019-04-11T14:10:47.439Z,6.35
2019-04-11T14:13:17.006Z,6.40
2019-04-11T14:15:48.188Z,6.17
2019-04-11T14:18:19.318Z,6.45
2019-04-11T14:20:50.495Z,6.25
2019-04-11T14:26:08.802Z,6.33
2019-04-11T14:28:39.870Z,4.58
2019-04-11T14:31:11.128Z,6.03
2019-04-11T14:33:42.218Z,6.50
2019-04-11T14:36:13.301Z,5.97
2019-04-11T14:38:48.016Z,5.85
2019-04-11T14:41:17.323Z,6.40
2019-04-11T14:43:48.394Z,6.80
2019-04-11T14:46:19.506Z,6.70
2019-04-11T14:48:50.654Z,6.50
2019-04-11T14:51:23.812Z,6.20
2019-04-11T14:53:54.585Z,6.20
2019-04-11T14:56:27.159Z,5.83
2019-04-11T14:58:58.377Z,6.33
2019-04-11T15:01:29.316Z,6.60
2019-04-11T15:04:00.447Z,6.77
2019-04-11T15:06:32.498Z,5.90
2019-04-11T15:09:03.583Z,6.10
2019-04-11T15:11:35.091Z,5.83
2019-04-11T15:14:25.510Z,6.30
2019-04-11T15:16:56.804Z,5.57
2019-04-11T15:19:26.754Z,6.50
2019-04-11T15:21:57.854Z,6.10
2019-04-11T15:24:48.314Z,6.70
2019-04-11T15:27:19.561Z,6.17
2019-04-11T15:29:49.087Z,7.17
2019-04-11T15:32:39.515Z,6.23
2019-04-11T15:35:09.397Z,6.70
2019-04-11T15:37:40.473Z,6.77
2019-04-11T15:40:11.967Z,6.50
2019-04-11T15:42:43.038Z,6.47
2019-04-11T15:45:14.791Z,5.93
2019-04-11T15:47:46.752Z,6.63
2019-04-11T15:50:18.863Z,6.80
2019-04-11T15:52:49.939Z,7.33
2019-04-11T15:55:21.144Z,6.60
2019-04-11T15:57:52.263Z,6.70
2019-04-11T16:00:43.924Z,7.30
2019-04-11T16:03:13.969Z,6.77
2019-04-11T16:08:49.435Z,7.73
2019-04-11T16:11:20.551Z,7.00
2019-04-11T16:13:51.605Z,7.27
2019-04-11T16:16:22.984Z,7.40
2019-04-11T16:19:14.789Z,7.13
2019-04-11T16:21:46.187Z,7.17
2019-04-11T16:24:17.284Z,6.73
2019-04-11T16:26:48.353Z,6.70
2019-04-11T16:29:19.654Z,7.20
2019-04-11T16:31:49.097Z,6.63
2019-04-11T16:34:20.230Z,6.90
2019-04-11T16:36:51.202Z,7.90
2019-04-11T16:39:22.293Z,7.33
2019-04-11T16:41:53.869Z,6.77
2019-04-11T16:44:26.422Z,6.97
2019-04-11T16:46:57.548Z,6.53
2019-04-11T16:49:46.531Z,6.57
2019-04-11T16:52:16.043Z,7.10
2019-04-11T16:54:45.509Z,6.97
2019-04-11T16:57:15.051Z,7.57
2019-04-11T16:59:44.492Z,6.93
2019-04-11T17:02:13.987Z,6.83
2019-04-11T17:04:43.490Z,7.77
2019-04-11T17:07:14.573Z,7.63
2019-04-11T17:09:45.641Z,7.37
2019-04-11T17:12:15.196Z,7.80
2019-04-11T17:15:05.425Z,7.97
2019-04-11T17:17:34.916Z,7.30
2019-04-11T17:20:06.782Z,7.20
2019-04-11T17:22:36.402Z,7.20
2019-04-11T17:25:06.933Z,7.10
2019-04-11T17:27:36.394Z,7.80
2019-04-11T17:30:08.543Z,7.50
2019-04-11T17:32:38.220Z,7.17
2019-04-11T17:35:08.069Z,7.57
2019-04-11T17:37:37.535Z,7.73
2019-04-11T17:40:07.963Z,9.00
2019-04-11T17:42:37.410Z,7.73
2019-04-11T17:45:26.198Z,7.23
2019-04-11T17:47:57.296Z,9.07
2019-04-11T17:50:46.173Z,7.73
2019-04-11T17:53:15.630Z,7.50
2019-04-11T17:55:45.127Z,6.90
2019-04-11T17:58:14.632Z,7.33
2019-04-11T18:00:45.783Z,7.17
2019-04-11T18:03:15.333Z,7.03
2019-04-11T18:05:46.921Z,7.33
2019-04-11T18:08:19.762Z,7.60
2019-04-11T18:10:48.856Z,6.90
2019-04-11T18:13:37.652Z,7.43
2019-04-11T18:16:07.300Z,6.83
2019-04-11T18:18:36.803Z,6.63
2019-04-11T18:21:07.326Z,7.27
2019-04-11T18:23:37.590Z,6.70
2019-04-11T18:26:07.086Z,7.10
2019-04-11T18:28:55.898Z,6.40
2019-04-11T18:31:25.677Z,6.90
2019-04-11T18:33:55.445Z,6.97
2019-04-11T18:36:25.278Z,6.53
2019-04-11T18:38:54.825Z,6.10
2019-04-11T18:41:24.283Z,6.60
2019-04-11T18:43:53.821Z,7.00
2019-04-11T18:46:23.690Z,6.50
2019-04-11T18:48:54.483Z,5.77
2019-04-11T18:51:24.307Z,5.60
2019-04-11T18:53:53.764Z,6.00
2019-04-11T18:56:23.231Z,5.50
2019-04-11T18:58:52.708Z,5.80
2019-04-11T19:01:22.344Z,6.10
2019-04-11T19:03:51.809Z,6.10
2019-04-11T19:06:27.792Z,6.10
2019-04-11T19:08:52.596Z,5.77
2019-04-11T19:11:22.319Z,7.00
2019-04-11T19:13:51.905Z,5.87
2019-04-11T19:16:21.392Z,6.27
2019-04-11T19:18:50.864Z,5.97
2019-04-11T19:21:21.271Z,6.33
2019-04-11T19:23:50.768Z,6.00
2019-04-11T19:26:22.773Z,6.30
2019-04-11T19:28:54.899Z,6.23
2019-04-11T19:31:27.384Z,6.80
2019-04-11T19:33:55.019Z,6.10
2019-04-11T19:36:24.620Z,6.43
2019-04-11T19:38:54.112Z,6.67
2019-04-11T19:41:23.567Z,6.83
2019-04-11T19:43:53.076Z,6.60
2019-04-11T19:46:22.556Z,6.77
2019-04-11T19:48:55.374Z,7.10
2019-04-11T19:51:23.228Z,7.37
2019-04-11T19:53:52.709Z,6.30
2019-04-11T19:56:23.771Z,6.73
2019-04-11T19:58:53.261Z,6.60
2019-04-11T20:01:23.512Z,6.83
2019-04-11T20:03:54.040Z,6.47
2019-04-11T20:06:24.249Z,7.50
2019-04-11T20:08:53.696Z,6.50
2019-04-11T20:11:23.262Z,7.10
2019-04-11T20:13:52.739Z,5.83
2019-04-11T20:16:22.289Z,6.70
2019-04-11T20:18:56.531Z,5.60
2019-04-11T20:21:24.557Z,6.43
2019-04-11T20:24:14.562Z,6.20
2019-04-11T20:26:44.646Z,6.53
2019-04-11T20:29:14.128Z,6.43
2019-04-11T20:31:43.615Z,6.67
2019-04-11T20:34:13.280Z,6.40
2019-04-11T20:36:55.362Z,6.60
2019-04-11T20:39:24.841Z,6.67
2019-04-11T20:41:55.802Z,6.60
2019-04-11T20:44:27.454Z,6.70
2019-04-11T20:47:00.093Z,6.50
2019-04-11T20:49:27.748Z,6.70
2019-04-11T20:51:57.204Z,6.23
2019-04-11T20:54:26.711Z,6.67
2019-04-11T20:56:56.177Z,6.00
2019-04-11T20:59:34.617Z,6.57
2019-04-11T21:02:16.177Z,6.10
2019-04-11T21:04:45.638Z,5.97
2019-04-11T21:07:34.438Z,6.27
2019-04-11T21:10:06.032Z,6.00
2019-04-11T21:12:37.368Z,6.50
2019-04-11T21:15:08.546Z,6.50
2019-04-11T21:17:57.342Z,6.30
2019-04-11T21:20:26.837Z,6.20
2019-04-11T21:22:56.283Z,6.57
2019-04-11T21:25:26.106Z,6.03
2019-04-11T21:27:59.118Z,6.80
2019-04-11T21:30:30.340Z,6.43
2019-04-11T21:33:01.174Z,6.00
2019-04-11T21:35:44.143Z,6.23
2019-04-11T21:38:13.617Z,5.67
2019-04-11T21:40:43.090Z,6.07
2019-04-11T21:43:12.690Z,6.20
2019-04-11T21:45:42.236Z,6.50
2019-04-11T21:48:31.057Z,6.57
2019-04-11T21:51:00.537Z,6.10
2019-04-11T21:53:36.566Z,5.53
2019-04-11T21:56:01.258Z,5.40
2019-04-11T21:58:30.715Z,6.20
2019-04-11T22:01:04.989Z,5.60
2019-04-11T22:03:34.482Z,5.77
2019-04-11T22:06:04.141Z,6.03
2019-04-11T22:08:34.370Z,5.73
2019-04-11T22:11:05.000Z,6.03
2019-04-11T22:13:34.481Z,6.03
2019-04-11T22:16:04.210Z,5.90
2019-04-11T22:18:33.817Z,6.03
2019-04-11T22:21:04.977Z,6.67
2019-04-11T22:23:34.431Z,5.80
2019-04-11T22:26:04.381Z,5.87
2019-04-11T22:28:33.828Z,5.93
2019-04-11T22:31:03.396Z,6.23
2019-04-11T22:33:34.598Z,6.20
2019-04-11T22:36:05.082Z,5.90
2019-04-11T22:38:34.568Z,6.37
2019-04-11T22:41:04.139Z,6.13
2019-04-11T22:43:33.626Z,6.17
2019-04-11T22:46:03.138Z,5.63
2019-04-11T22:48:32.649Z,5.90
2019-04-11T22:51:02.142Z,5.63
2019-04-11T22:53:31.616Z,5.57
2019-04-11T22:56:01.124Z,6.10
2019-04-11T22:58:30.590Z,6.20
2019-04-11T23:01:00.049Z,5.80
2019-04-11T23:03:31.193Z,5.90
2019-04-11T23:06:20.027Z,5.93
2019-04-11T23:08:49.609Z,5.53
2019-04-11T23:11:19.047Z,5.67
2019-04-11T23:13:48.879Z,5.90
2019-04-11T23:16:18.395Z,6.00
2019-04-11T23:18:48.029Z,5.83
2019-04-11T23:21:17.505Z,5.77
2019-04-11T23:23:46.967Z,6.20
2019-04-11T23:26:16.450Z,6.03
2019-04-11T23:28:46.854Z,5.70
2019-04-11T23:31:19.797Z,6.43
2019-04-11T23:33:51.770Z,5.60
2019-04-11T23:36:21.181Z,6.10
2019-04-11T23:38:52.595Z,6.40
2019-04-11T23:41:22.371Z,6.47
2019-04-11T23:43:51.850Z,6.10
2019-04-11T23:46:40.683Z,6.37
2019-04-11T23:49:10.169Z,5.80
2019-04-11T23:51:39.658Z,6.27
2019-04-11T23:54:09.300Z,7.03
2019-04-11T23:56:38.791Z,5.97
2019-04-11T23:59:08.273Z,5.93
